METAR Data
IDs: Format: Raw Decoded Include TAF

Data at: 1610 UTC 03 Dec 2021

ESNO 031550Z AUTO 03006KT 340V070 8000 -SN OVC008/// M05/M05 Q1002